Inman, Kansas
Current Conditions -  °F | °C
As of 5:52 PM on Sunday 21 Dec 2014 (Local Time) from KHUT Reporting Station
Haze Haze  
Wind Chill:   Ceiling: 600
Heat Index:   Visibility: 5mi
Dew Point:   Wind: 18mph
Humidity: 90%   Direction: 170°S
Pressure: 29.68"   Gusts: NA
Location:  38.23°N, 97.77°W
Report Text: KHUT 212352Z 17016KT 5SM BR OVC006 07/06 A2968 RMK AO2 SLP048 60000 T00720056 10072 20056 58017
Loading
Personal Weather Stations






























Interactive Weather Map New forecast layout! Learn more

10-Day Weather Forecast

Advertisements
Track Severe Weather on mobile